Time;durP1;ratioP1;P1;durP2;ratioP2;P2;SDS_P1;SDS_P2;PMS_P1;PMS_P2;Temp;Humidity;BMP_temperature;BMP_pressure;BME280_temperature;BME280_humidity;BME280_pressure;Samples;Min_cycle;Max_cycle;Signal;HPM_P1;HPM_P2
2022/06/24 00:02:02;;;;;;;;;;;24.10;80.00;;;;;;4986740;28;19926;-62
2022/06/24 00:04:28;;;;;;;;;;;24.10;79.50;;;;;;5005609;28;20369;-62
2022/06/24 00:06:54;;;;;;;;;;;24.10;79.60;;;;;;5006594;28;20087;-62
2022/06/24 00:09:20;;;;;;;;;;;24.10;79.30;;;;;;5005356;28;19914;-62
2022/06/24 00:11:59;;;;;;;;;;;24.10;79.50;;;;;;5007500;28;19913;-62
2022/06/24 00:14:24;;;;;;;;;;;24.00;79.70;;;;;;5004544;28;19914;-62
2022/06/24 00:16:58;;;;;;;;;;;23.90;79.40;;;;;;5001837;28;19917;-62
2022/06/24 00:19:24;;;;;;;;;;;23.90;80.20;;;;;;5010649;28;20348;-62
2022/06/24 00:22:16;;;;;;;;;;;23.90;79.60;;;;;;5003893;28;19957;-62
2022/06/24 00:24:42;;;;;;;;;;;23.90;79.80;;;;;;4982618;28;19913;-62
2022/06/24 00:27:22;;;;;;;;;;;24.00;79.70;;;;;;5007755;28;20894;-62
2022/06/24 00:29:48;;;;;;;;;;;24.00;79.80;;;;;;4999516;28;19957;-62
2022/06/24 00:32:14;;;;;;;;;;;23.90;80.00;;;;;;4964430;28;19918;-62
2022/06/24 00:34:40;;;;;;;;;;;23.90;79.70;;;;;;4988689;28;20061;-62
2022/06/24 00:37:22;;;;;;;;;;;23.90;79.30;;;;;;4977869;28;20358;-62
2022/06/24 00:39:48;;;;;;;;;;;23.90;79.70;;;;;;4986624;28;19914;-62
2022/06/24 00:42:14;;;;;;;;;;;23.80;79.40;;;;;;4982930;28;20016;-62
2022/06/24 00:44:44;;;;;;;;;;;23.80;79.50;;;;;;4989884;28;19914;-62
2022/06/24 00:47:11;;;;;;;;;;;23.80;79.40;;;;;;4988966;28;19922;-62
2022/06/24 00:49:37;;;;;;;;;;;23.90;78.80;;;;;;4989519;28;19918;-62
2022/06/24 00:52:07;;;;;;;;;;;23.90;79.40;;;;;;4982541;28;19968;-62
2022/06/24 00:54:33;;;;;;;;;;;24.00;78.50;;;;;;4986911;28;20041;-62
2022/06/24 00:56:58;;;;;;;;;;;24.10;77.50;;;;;;4975792;28;19949;-62
2022/06/24 00:59:25;;;;;;;;;;;24.30;76.90;;;;;;4972861;28;20000;-62
2022/06/24 01:01:51;;;;;;;;;;;24.30;77.30;;;;;;4987413;28;19928;-62
2022/06/24 01:04:17;;;;;;;;;;;24.20;77.80;;;;;;4971949;28;19918;-62
2022/06/24 01:06:44;;;;;;;;;;;24.30;77.60;;;;;;4970052;28;19914;-62
2022/06/24 01:09:09;;;;;;;;;;;24.20;77.50;;;;;;4982708;28;20111;-62
2022/06/24 01:11:36;;;;;;;;;;;24.30;76.90;;;;;;4991439;28;20012;-63
2022/06/24 01:14:02;;;;;;;;;;;24.30;76.70;;;;;;4962997;28;19914;-63
2022/06/24 01:16:28;;;;;;;;;;;24.40;78.40;;;;;;4990824;28;20293;-62
2022/06/24 01:18:57;;;;;;;;;;;24.40;80.30;;;;;;4970325;28;19913;-62
2022/06/24 01:21:42;;;;;;;;;;;24.30;83.30;;;;;;4969162;28;19918;-62
2022/06/24 01:24:09;;;;;;;;;;;24.20;88.50;;;;;;4999046;28;20024;-62
2022/06/24 01:26:39;;;;;;;;;;;24.00;92.60;;;;;;4971116;28;19949;-62
2022/06/24 01:29:05;;;;;;;;;;;23.80;95.60;;;;;;4968838;28;20004;-62
2022/06/24 01:31:30;;;;;;;;;;;23.60;98.30;;;;;;5000893;28;20412;-62
2022/06/24 01:33:56;;;;;;;;;;;23.50;99.90;;;;;;4997326;28;20055;-62
2022/06/24 01:36:22;;;;;;;;;;;23.40;99.90;;;;;;5006979;28;20015;-62
2022/06/24 01:38:47;;;;;;;;;;;23.30;99.90;;;;;;5005496;28;19913;-62
2022/06/24 01:41:13;;;;;;;;;;;23.10;99.90;;;;;;4999141;28;19964;-63
2022/06/24 01:43:38;;;;;;;;;;;23.00;99.90;;;;;;5006839;28;20297;-63
2022/06/24 01:46:04;;;;;;;;;;;23.00;99.90;;;;;;4998349;28;20143;-63
2022/06/24 01:48:30;;;;;;;;;;;23.00;99.90;;;;;;5003579;28;20357;-63
2022/06/24 01:50:55;;;;;;;;;;;23.00;99.90;;;;;;5004284;28;20024;-63
2022/06/24 01:53:21;;;;;;;;;;;23.00;99.90;;;;;;5004638;28;19964;-63
2022/06/24 01:55:47;;;;;;;;;;;23.00;99.90;;;;;;5004359;28;20365;-63
2022/06/24 01:58:12;;;;;;;;;;;22.90;99.90;;;;;;4998806;28;20370;-63
2022/06/24 02:00:38;;;;;;;;;;;22.80;99.90;;;;;;5001889;28;19921;-63
2022/06/24 02:03:07;;;;;;;;;;;22.70;99.90;;;;;;5005131;28;19949;-63
2022/06/24 02:05:32;;;;;;;;;;;22.70;99.90;;;;;;5002530;28;19936;-63
2022/06/24 02:07:58;;;;;;;;;;;22.70;99.90;;;;;;5002128;28;20016;-63
2022/06/24 02:13:28;;;;;;;;;;;22.70;99.90;;;;;;4998589;28;19976;-63
2022/06/24 02:15:58;;;;;;;;;;;22.70;99.90;;;;;;5000533;28;20004;-63
2022/06/24 02:18:24;;;;;;;;;;;22.70;99.90;;;;;;4998455;28;20290;-63
2022/06/24 02:20:50;;;;;;;;;;;22.60;99.90;;;;;;4996603;28;19921;-63
2022/06/24 02:23:16;;;;;;;;;;;22.50;99.90;;;;;;5002627;28;20001;-63
2022/06/24 02:25:42;;;;;;;;;;;22.40;99.90;;;;;;5002660;28;19917;-63
2022/06/24 02:28:07;;;;;;;;;;;22.30;99.90;;;;;;5000608;28;20812;-63
2022/06/24 02:30:33;;;;;;;;;;;22.20;99.90;;;;;;4996940;28;19929;-63
2022/06/24 02:32:58;;;;;;;;;;;22.30;99.90;;;;;;5005695;28;20369;-63
2022/06/24 02:35:24;;;;;;;;;;;22.10;99.90;;;;;;5005178;28;20210;-63
2022/06/24 02:37:49;;;;;;;;;;;22.00;99.90;;;;;;4999108;28;20391;-63
2022/06/24 02:42:59;;;;;;;;;;;21.80;99.90;;;;;;5001886;28;20331;-63
2022/06/24 02:45:25;;;;;;;;;;;21.80;99.90;;;;;;5003765;28;20008;-63
2022/06/24 02:47:50;;;;;;;;;;;21.80;99.90;;;;;;5001772;28;19967;-63
2022/06/24 02:50:16;;;;;;;;;;;21.80;99.90;;;;;;5007823;28;19917;-63
2022/06/24 02:52:41;;;;;;;;;;;21.80;99.90;;;;;;5003979;28;20408;-63
2022/06/24 02:55:07;;;;;;;;;;;21.70;99.90;;;;;;5000691;28;20357;-63
2022/06/24 02:57:33;;;;;;;;;;;21.70;99.90;;;;;;5011267;28;19959;-63
2022/06/24 02:59:58;;;;;;;;;;;21.70;99.90;;;;;;5007454;28;19913;-63
2022/06/24 03:02:24;;;;;;;;;;;21.70;99.90;;;;;;5002600;28;19918;-63
2022/06/24 03:04:50;;;;;;;;;;;21.60;99.90;;;;;;5006092;28;19925;-63
2022/06/24 03:07:15;;;;;;;;;;;21.60;99.90;;;;;;5004605;28;19920;-63
2022/06/24 03:09:41;;;;;;;;;;;21.60;99.90;;;;;;5011377;28;19922;-63
2022/06/24 03:12:07;;;;;;;;;;;21.60;99.90;;;;;;5008493;28;19918;-63
2022/06/24 03:14:32;;;;;;;;;;;21.60;99.90;;;;;;4995482;28;19924;-63
2022/06/24 03:16:58;;;;;;;;;;;21.70;99.90;;;;;;5002165;28;19914;-63
2022/06/24 03:19:23;;;;;;;;;;;21.70;99.90;;;;;;5002553;28;20150;-63
2022/06/24 03:21:49;;;;;;;;;;;21.60;99.90;;;;;;4998820;28;19918;-63
2022/06/24 03:24:15;;;;;;;;;;;21.20;99.90;;;;;;5002048;28;20350;-62
2022/06/24 03:26:40;;;;;;;;;;;20.80;99.90;;;;;;5004618;28;20528;-63
2022/06/24 03:29:06;;;;;;;;;;;20.60;99.90;;;;;;5006088;28;20201;-62
2022/06/24 03:31:31;;;;;;;;;;;20.40;99.90;;;;;;4996288;28;19922;-62
2022/06/24 03:33:58;;;;;;;;;;;20.20;99.90;;;;;;5004018;28;19917;-62
2022/06/24 03:36:24;;;;;;;;;;;20.00;99.90;;;;;;5006019;28;20388;-63
2022/06/24 03:38:49;;;;;;;;;;;20.00;99.90;;;;;;5006767;28;19917;-62
2022/06/24 03:41:15;;;;;;;;;;;19.90;99.90;;;;;;4999029;28;19957;-62
2022/06/24 03:43:40;;;;;;;;;;;19.90;99.90;;;;;;4998377;28;20005;-62
2022/06/24 03:46:06;;;;;;;;;;;19.80;99.90;;;;;;4996374;28;19972;-63
2022/06/24 03:48:32;;;;;;;;;;;19.70;99.90;;;;;;5005759;28;20396;-63
2022/06/24 03:50:57;;;;;;;;;;;19.60;99.90;;;;;;4998166;28;20300;-63
2022/06/24 03:53:23;;;;;;;;;;;19.40;99.90;;;;;;5001027;28;20297;-63
2022/06/24 03:55:49;;;;;;;;;;;19.40;99.90;;;;;;5005445;28;19962;-63
2022/06/24 03:58:14;;;;;;;;;;;19.50;99.90;;;;;;5001444;28;20440;-63
2022/06/24 04:00:40;;;;;;;;;;;19.50;99.90;;;;;;5010075;28;19929;-63
2022/06/24 04:03:05;;;;;;;;;;;19.50;99.90;;;;;;5001339;28;19921;-63
2022/06/24 04:05:31;;;;;;;;;;;19.50;99.90;;;;;;4999425;28;19914;-63
2022/06/24 04:07:57;;;;;;;;;;;19.50;99.90;;;;;;5002773;28;20516;-63
2022/06/24 04:10:22;;;;;;;;;;;19.50;99.90;;;;;;5007242;28;19938;-63
2022/06/24 04:12:48;;;;;;;;;;;19.50;99.90;;;;;;5000006;28;20035;-63
2022/06/24 04:15:13;;;;;;;;;;;19.50;99.90;;;;;;4999140;28;20079;-63
2022/06/24 04:17:39;;;;;;;;;;;19.50;99.90;;;;;;4996924;28;19918;-63
2022/06/24 04:20:05;;;;;;;;;;;19.30;99.90;;;;;;5016784;28;19914;-63
2022/06/24 04:22:31;;;;;;;;;;;19.30;99.90;;;;;;5017146;28;19927;-63
2022/06/24 04:24:56;;;;;;;;;;;19.50;99.90;;;;;;5021912;28;20351;-63
2022/06/24 04:27:22;;;;;;;;;;;19.50;99.90;;;;;;5017766;28;19913;-63
2022/06/24 04:29:47;;;;;;;;;;;19.40;99.90;;;;;;5018286;28;19924;-63
2022/06/24 04:32:13;;;;;;;;;;;19.40;99.90;;;;;;5021201;28;19921;-63
2022/06/24 04:34:38;;;;;;;;;;;19.40;99.90;;;;;;5012233;28;19967;-63
2022/06/24 04:37:04;;;;;;;;;;;19.40;99.90;;;;;;5027087;28;19917;-63
2022/06/24 04:39:30;;;;;;;;;;;19.40;99.90;;;;;;5022643;28;19928;-63
2022/06/24 04:41:55;;;;;;;;;;;19.40;99.90;;;;;;5028076;28;20153;-63
2022/06/24 04:44:21;;;;;;;;;;;19.30;99.90;;;;;;5029060;28;19943;-63
2022/06/24 04:46:47;;;;;;;;;;;19.50;99.90;;;;;;5011666;28;19919;-63
2022/06/24 04:49:12;;;;;;;;;;;19.40;99.90;;;;;;5022081;28;20008;-63
2022/06/24 04:51:38;;;;;;;;;;;19.50;99.90;;;;;;5027737;28;19917;-63
2022/06/24 04:54:03;;;;;;;;;;;19.50;99.90;;;;;;5024625;28;19914;-63
2022/06/24 04:56:29;;;;;;;;;;;19.50;99.90;;;;;;5020901;28;19964;-63
2022/06/24 04:58:55;;;;;;;;;;;19.50;99.90;;;;;;5010410;28;19970;-63
2022/06/24 05:01:21;;;;;;;;;;;19.40;99.90;;;;;;5026605;28;19921;-63
2022/06/24 05:03:46;;;;;;;;;;;19.40;99.90;;;;;;5018805;28;19920;-63
2022/06/24 05:06:12;;;;;;;;;;;19.50;99.90;;;;;;5023736;28;19917;-63
2022/06/24 05:08:37;;;;;;;;;;;19.50;99.90;;;;;;5019686;28;19918;-63
2022/06/24 05:11:04;;;;;;;;;;;19.40;99.90;;;;;;5015241;28;19913;-63
2022/06/24 05:13:30;;;;;;;;;;;19.50;99.90;;;;;;5022727;28;19914;-64
2022/06/24 05:15:57;;;;;;;;;;;19.30;99.90;;;;;;5026304;28;20253;-64
2022/06/24 05:18:23;;;;;;;;;;;19.30;99.90;;;;;;5019490;28;19909;-64
2022/06/24 05:20:49;;;;;;;;;;;19.20;99.90;;;;;;5015702;28;20451;-64
2022/06/24 05:23:14;;;;;;;;;;;19.20;99.90;;;;;;5006077;28;20369;-65
2022/06/24 05:25:40;;;;;;;;;;;19.20;99.90;;;;;;5009927;28;20223;-65
2022/06/24 05:28:05;;;;;;;;;;;19.20;99.90;;;;;;5017827;28;19921;-65
2022/06/24 05:30:31;;;;;;;;;;;19.30;99.90;;;;;;5014601;28;19928;-65
2022/06/24 05:32:56;;;;;;;;;;;19.20;99.90;;;;;;5021801;28;20000;-65
2022/06/24 05:35:22;;;;;;;;;;;19.10;99.90;;;;;;5021463;28;19917;-65
2022/06/24 05:37:47;;;;;;;;;;;19.10;99.90;;;;;;5024636;28;19917;-62
2022/06/24 05:40:13;;;;;;;;;;;19.00;99.90;;;;;;5019821;28;19924;-62
2022/06/24 05:42:38;;;;;;;;;;;18.90;99.90;;;;;;5015243;28;20391;-62
2022/06/24 05:45:04;;;;;;;;;;;18.80;99.90;;;;;;5012704;28;20281;-62
2022/06/24 05:47:30;;;;;;;;;;;18.80;99.90;;;;;;5020127;28;20100;-62
2022/06/24 05:49:55;;;;;;;;;;;18.80;99.90;;;;;;5019218;28;19913;-62
2022/06/24 05:55:02;;;;;;;;;;;18.70;99.90;;;;;;4996299;28;19920;-62
2022/06/24 05:55:06;;;;;;;;;;;18.60;99.90;;;;;;5014827;28;20385;-62
2022/06/24 05:57:32;;;;;;;;;;;18.60;99.90;;;;;;5012430;28;20192;-62
2022/06/24 05:59:57;;;;;;;;;;;18.50;99.90;;;;;;5016943;28;19913;-62
2022/06/24 06:02:23;;;;;;;;;;;18.50;99.90;;;;;;5015477;28;19986;-62
2022/06/24 06:04:48;;;;;;;;;;;18.60;99.90;;;;;;5008550;28;19923;-62
2022/06/24 06:07:14;;;;;;;;;;;18.60;99.90;;;;;;5018452;28;19909;-62
2022/06/24 06:09:41;;;;;;;;;;;18.60;99.90;;;;;;5022569;28;20562;-62
2022/06/24 06:12:07;;;;;;;;;;;18.60;99.90;;;;;;5019563;28;19921;-61
2022/06/24 06:14:32;;;;;;;;;;;18.70;99.90;;;;;;5022502;28;20426;-62
2022/06/24 06:16:58;;;;;;;;;;;18.70;99.90;;;;;;5024479;28;19920;-62
2022/06/24 06:19:23;;;;;;;;;;;18.80;99.90;;;;;;5004153;28;19913;-62
2022/06/24 06:21:49;;;;;;;;;;;18.90;99.90;;;;;;5020123;28;19921;-61
2022/06/24 06:24:14;;;;;;;;;;;18.80;99.90;;;;;;5020445;28;19915;-61
2022/06/24 06:26:40;;;;;;;;;;;18.90;99.90;;;;;;5023107;28;20417;-61
2022/06/24 06:29:06;;;;;;;;;;;18.90;99.90;;;;;;5022273;28;19917;-62
2022/06/24 06:31:32;;;;;;;;;;;18.90;99.90;;;;;;5005632;28;19921;-62
2022/06/24 06:33:58;;;;;;;;;;;19.10;99.90;;;;;;5017001;28;19914;-61
2022/06/24 06:36:23;;;;;;;;;;;19.10;99.90;;;;;;5021945;28;19913;-62
2022/06/24 06:38:49;;;;;;;;;;;19.20;99.90;;;;;;5014162;28;19913;-62
2022/06/24 06:41:14;;;;;;;;;;;19.30;99.90;;;;;;5013759;28;19939;-62
2022/06/24 06:43:40;;;;;;;;;;;19.30;99.90;;;;;;5022679;28;19921;-61
2022/06/24 06:46:10;;;;;;;;;;;19.40;99.90;;;;;;5015197;28;20281;-62
2022/06/24 06:48:35;;;;;;;;;;;19.50;99.90;;;;;;5012785;28;19948;-61
2022/06/24 06:51:01;;;;;;;;;;;19.60;99.90;;;;;;5014005;28;19963;-61
2022/06/24 06:53:27;;;;;;;;;;;19.70;99.90;;;;;;5010744;28;20008;-61
2022/06/24 06:55:53;;;;;;;;;;;19.70;99.90;;;;;;5014020;28;19987;-62
2022/06/24 06:58:19;;;;;;;;;;;19.90;99.90;;;;;;5014713;28;20002;-61
2022/06/24 07:00:44;;;;;;;;;;;20.10;99.90;;;;;;5016583;28;19968;-62
2022/06/24 07:03:10;;;;;;;;;;;20.20;99.90;;;;;;5020215;28;19960;-62
2022/06/24 07:05:36;;;;;;;;;;;20.20;99.90;;;;;;5019229;28;20380;-61
2022/06/24 07:08:02;;;;;;;;;;;20.50;99.90;;;;;;5026246;28;19984;-61
2022/06/24 07:10:27;;;;;;;;;;;20.70;99.90;;;;;;5024756;28;19939;-62
2022/06/24 07:12:53;;;;;;;;;;;20.80;99.90;;;;;;5022323;28;19948;-62
2022/06/24 07:15:18;;;;;;;;;;;20.90;99.90;;;;;;5017559;28;19913;-62
2022/06/24 07:17:44;;;;;;;;;;;21.10;99.90;;;;;;5023210;28;19975;-61
2022/06/24 07:20:10;;;;;;;;;;;21.20;99.90;;;;;;5015257;28;19963;-61
2022/06/24 07:22:35;;;;;;;;;;;21.20;99.90;;;;;;5024449;28;19953;-62
2022/06/24 07:25:01;;;;;;;;;;;21.30;99.90;;;;;;5018742;28;19914;-62
2022/06/24 07:27:27;;;;;;;;;;;21.30;99.90;;;;;;5021857;28;19924;-61
2022/06/24 07:29:52;;;;;;;;;;;21.40;99.90;;;;;;5007425;28;20289;-61
2022/06/24 07:32:18;;;;;;;;;;;21.40;99.90;;;;;;5022868;28;20289;-61
2022/06/24 07:34:43;;;;;;;;;;;21.50;99.90;;;;;;5025679;28;20427;-61
2022/06/24 07:37:09;;;;;;;;;;;21.60;99.90;;;;;;5019714;28;20005;-61
2022/06/24 07:39:34;;;;;;;;;;;21.60;99.90;;;;;;5022593;28;19909;-62
2022/06/24 07:42:00;;;;;;;;;;;21.70;99.90;;;;;;5021837;28;20380;-62
2022/06/24 07:44:25;;;;;;;;;;;21.60;99.90;;;;;;5013966;28;20297;-62
2022/06/24 07:46:51;;;;;;;;;;;21.90;99.90;;;;;;5014641;28;20560;-62
2022/06/24 07:49:17;;;;;;;;;;;21.90;99.90;;;;;;5002708;28;19940;-62
2022/06/24 07:51:42;;;;;;;;;;;22.20;99.90;;;;;;5022985;28;19913;-62
2022/06/24 07:54:08;;;;;;;;;;;22.30;99.90;;;;;;5020811;28;19959;-62
2022/06/24 07:59:19;;;;;;;;;;;22.30;99.90;;;;;;5019339;28;19932;-62
2022/06/24 08:01:44;;;;;;;;;;;22.80;99.90;;;;;;5022139;28;19921;-61
2022/06/24 08:04:10;;;;;;;;;;;23.00;99.90;;;;;;5017450;28;19921;-62
2022/06/24 08:06:36;;;;;;;;;;;23.10;99.90;;;;;;5020172;28;20202;-61
2022/06/24 08:09:02;;;;;;;;;;;23.10;99.90;;;;;;5017380;28;19925;-61
2022/06/24 08:11:28;;;;;;;;;;;23.60;99.90;;;;;;5014787;28;19929;-61
2022/06/24 08:13:54;;;;;;;;;;;23.80;99.90;;;;;;5016405;28;19921;-61
2022/06/24 08:16:20;;;;;;;;;;;24.20;99.90;;;;;;5016113;28;20173;-61
2022/06/24 08:18:45;;;;;;;;;;;24.20;99.90;;;;;;5014370;28;19935;-62
2022/06/24 08:21:11;;;;;;;;;;;24.20;99.90;;;;;;5018484;28;19939;-61
2022/06/24 08:23:36;;;;;;;;;;;24.30;99.90;;;;;;5020840;28;19924;-61
2022/06/24 08:26:02;;;;;;;;;;;24.50;99.90;;;;;;5025024;28;19928;-61
2022/06/24 08:28:27;;;;;;;;;;;24.70;99.90;;;;;;5016564;28;19915;-61
2022/06/24 08:30:53;;;;;;;;;;;24.90;99.90;;;;;;5018894;28;19972;-61
2022/06/24 08:33:19;;;;;;;;;;;24.90;99.90;;;;;;5017594;28;19909;-61
2022/06/24 08:35:44;;;;;;;;;;;24.90;99.90;;;;;;5015491;28;19913;-61
2022/06/24 08:38:10;;;;;;;;;;;25.10;99.90;;;;;;5014818;28;19932;-61
2022/06/24 08:40:35;;;;;;;;;;;25.50;99.90;;;;;;5015347;28;20389;-61
2022/06/24 08:43:01;;;;;;;;;;;25.40;99.90;;;;;;5025997;28;20292;-61
2022/06/24 08:45:27;;;;;;;;;;;24.90;99.90;;;;;;5021594;28;19914;-61
2022/06/24 08:47:53;;;;;;;;;;;24.70;99.90;;;;;;5019274;28;20387;-61
2022/06/24 08:50:19;;;;;;;;;;;25.10;99.90;;;;;;5022210;28;19910;-61
2022/06/24 08:52:48;;;;;;;;;;;25.40;99.90;;;;;;5017141;28;19980;-62
2022/06/24 08:55:18;;;;;;;;;;;25.80;99.90;;;;;;5020879;28;19909;-62
2022/06/24 08:57:44;;;;;;;;;;;26.40;99.90;;;;;;5024441;28;19917;-62
2022/06/24 09:00:10;;;;;;;;;;;27.20;99.90;;;;;;5021499;28;20284;-62
2022/06/24 09:02:36;;;;;;;;;;;26.40;99.90;;;;;;5015133;28;19917;-61
2022/06/24 09:05:12;;;;;;;;;;;26.20;99.90;;;;;;5017443;28;19909;-61
2022/06/24 09:07:38;;;;;;;;;;;26.50;99.90;;;;;;5019928;28;20052;-62
2022/06/24 09:10:05;;;;;;;;;;;26.30;99.90;;;;;;5021000;28;20090;-61
2022/06/24 09:12:42;;;;;;;;;;;26.00;99.90;;;;;;5018498;28;20309;-61
2022/06/24 09:15:09;;;;;;;;;;;25.60;99.90;;;;;;5019835;28;20311;-62
2022/06/24 09:17:35;;;;;;;;;;;25.60;99.90;;;;;;5020675;28;20512;-61
2022/06/24 09:20:05;;;;;;;;;;;25.00;99.90;;;;;;5020591;28;19945;-62
2022/06/24 09:22:30;;;;;;;;;;;24.50;99.90;;;;;;5005336;28;19920;-61
2022/06/24 09:24:58;;;;;;;;;;;24.60;99.90;;;;;;5021141;28;19916;-61
2022/06/24 09:27:25;;;;;;;;;;;24.50;99.90;;;;;;5020781;28;19909;-61
2022/06/24 09:29:50;;;;;;;;;;;24.00;99.90;;;;;;5021251;28;19972;-61
2022/06/24 09:32:16;;;;;;;;;;;23.40;99.90;;;;;;5013508;28;20310;-61
2022/06/24 09:35:04;;;;;;;;;;;22.80;99.90;;;;;;5018283;28;20032;-61
2022/06/24 09:37:49;;;;;;;;;;;22.60;99.90;;;;;;5016084;28;19937;-61
2022/06/24 09:40:19;;;;;;;;;;;22.50;99.90;;;;;;5009811;28;19920;-61
2022/06/24 09:42:55;;;;;;;;;;;22.30;99.90;;;;;;5015658;28;20018;-61
2022/06/24 09:45:21;;;;;;;;;;;23.00;99.90;;;;;;5016171;28;19925;-61
2022/06/24 09:47:50;;;;;;;;;;;23.70;99.90;;;;;;5018386;28;19913;-61
2022/06/24 09:50:19;;;;;;;;;;;24.40;99.90;;;;;;5024952;28;20139;-61
2022/06/24 09:52:44;;;;;;;;;;;23.80;99.90;;;;;;5024740;28;20222;-61
2022/06/24 09:55:10;;;;;;;;;;;22.90;99.90;;;;;;5024235;28;20047;-61
2022/06/24 09:57:36;;;;;;;;;;;22.70;99.90;;;;;;5018069;28;20343;-62
2022/06/24 10:02:48;;;;;;;;;;;21.90;99.90;;;;;;5017735;28;20535;-62
2022/06/24 10:05:16;;;;;;;;;;;21.50;99.90;;;;;;5014568;28;20256;-62
2022/06/24 10:07:45;;;;;;;;;;;21.30;99.90;;;;;;5017044;28;20264;-62
2022/06/24 10:10:11;;;;;;;;;;;21.00;99.90;;;;;;5018051;28;20256;-62
2022/06/24 10:12:41;;;;;;;;;;;21.10;99.90;;;;;;5011457;28;19924;-62
2022/06/24 10:15:06;;;;;;;;;;;21.30;99.90;;;;;;5015808;28;20004;-61
2022/06/24 10:17:33;;;;;;;;;;;21.40;99.90;;;;;;5019866;28;20003;-61
2022/06/24 10:19:59;;;;;;;;;;;21.50;99.90;;;;;;5023115;28;19913;-62
2022/06/24 10:22:38;;;;;;;;;;;21.50;99.90;;;;;;5024974;28;19913;-61
2022/06/24 10:25:03;;;;;;;;;;;21.70;99.90;;;;;;5022256;28;20577;-61
2022/06/24 10:27:47;;;;;;;;;;;21.80;99.90;;;;;;5013457;28;19995;-62
2022/06/24 10:30:33;;;;;;;;;;;21.40;99.90;;;;;;5013598;28;20312;-61
2022/06/24 10:33:11;;;;;;;;;;;21.10;99.90;;;;;;5020351;28;20396;-61
2022/06/24 10:35:56;;;;;;;;;;;21.20;99.90;;;;;;5023773;28;19917;-61
2022/06/24 10:38:22;;;;;;;;;;;21.10;99.90;;;;;;5023503;28;19910;-61
2022/06/24 10:40:48;;;;;;;;;;;21.10;99.90;;;;;;5008673;28;19952;-61
2022/06/24 10:43:14;;;;;;;;;;;21.00;99.90;;;;;;5015831;28;19920;-62
2022/06/24 10:45:39;;;;;;;;;;;20.90;99.90;;;;;;5023931;28;19976;-62
2022/06/24 10:48:05;;;;;;;;;;;21.20;99.90;;;;;;5020589;28;20436;-61
2022/06/24 10:50:30;;;;;;;;;;;21.10;99.90;;;;;;5022491;28;20412;-61
2022/06/24 10:53:00;;;;;;;;;;;21.50;99.90;;;;;;5021047;28;20205;-61
2022/06/24 10:55:30;;;;;;;;;;;22.30;99.90;;;;;;5026657;28;19917;-61
2022/06/24 10:57:57;;;;;;;;;;;23.80;99.90;;;;;;5023158;28;20254;-61
2022/06/24 11:00:22;;;;;;;;;;;23.40;99.90;;;;;;5022313;28;19917;-62
2022/06/24 11:02:53;;;;;;;;;;;23.20;99.90;;;;;;5018449;28;19918;-61
2022/06/24 11:05:26;;;;;;;;;;;23.10;99.90;;;;;;5020240;28;19913;-61
2022/06/24 11:07:51;;;;;;;;;;;23.20;99.90;;;;;;5025391;28;19997;-61
2022/06/24 11:10:19;;;;;;;;;;;23.20;99.90;;;;;;5023570;28;19933;-62
2022/06/24 11:12:52;;;;;;;;;;;23.40;99.90;;;;;;5015468;28;19924;-62
2022/06/24 11:15:18;;;;;;;;;;;23.60;99.90;;;;;;5025199;28;19913;-62
2022/06/24 11:17:43;;;;;;;;;;;23.70;99.90;;;;;;5022331;28;19919;-62
2022/06/24 11:20:12;;;;;;;;;;;23.90;99.90;;;;;;5018592;28;19929;-62
2022/06/24 11:22:42;;;;;;;;;;;23.90;99.90;;;;;;5009884;28;20261;-62
2022/06/24 11:25:09;;;;;;;;;;;24.50;99.90;;;;;;5025306;28;19917;-62
2022/06/24 11:27:36;;;;;;;;;;;25.60;99.90;;;;;;5025769;28;19986;-62
2022/06/24 11:30:02;;;;;;;;;;;25.70;99.90;;;;;;5028162;28;19972;-62
2022/06/24 11:32:27;;;;;;;;;;;25.40;99.90;;;;;;5026888;28;20559;-62
2022/06/24 11:34:53;;;;;;;;;;;25.60;99.90;;;;;;5027972;28;19916;-62
2022/06/24 11:37:22;;;;;;;;;;;25.60;99.90;;;;;;5023958;28;20284;-62
2022/06/24 11:39:54;;;;;;;;;;;25.90;99.90;;;;;;5018216;28;19922;-62
2022/06/24 11:42:21;;;;;;;;;;;25.80;99.90;;;;;;5012628;28;20428;-62
2022/06/24 11:44:48;;;;;;;;;;;25.60;99.90;;;;;;5008146;28;19913;-62
2022/06/24 11:47:14;;;;;;;;;;;25.70;99.90;;;;;;5016868;28;20000;-62
2022/06/24 11:49:42;;;;;;;;;;;26.50;99.90;;;;;;5024071;28;20032;-62
2022/06/24 11:52:07;;;;;;;;;;;26.40;99.90;;;;;;5020971;28;20348;-62
2022/06/24 11:54:33;;;;;;;;;;;26.00;99.90;;;;;;5019028;28;20602;-62
2022/06/24 11:56:59;;;;;;;;;;;25.70;99.90;;;;;;5026218;28;19923;-62
2022/06/24 11:59:28;;;;;;;;;;;27.10;99.90;;;;;;5026881;28;19913;-67
2022/06/24 12:01:54;;;;;;;;;;;28.90;99.90;;;;;;5025532;28;19922;-63
2022/06/24 12:04:20;;;;;;;;;;;29.80;99.90;;;;;;5005189;28;19909;-62
2022/06/24 12:06:46;;;;;;;;;;;29.60;99.90;;;;;;5015745;28;19921;-62
2022/06/24 12:09:12;;;;;;;;;;;29.50;99.90;;;;;;5020459;28;19913;-62
2022/06/24 12:11:41;;;;;;;;;;;29.10;99.90;;;;;;5023932;28;20308;-62
2022/06/24 12:14:07;;;;;;;;;;;30.70;99.20;;;;;;5006263;28;19921;-62
2022/06/24 12:16:52;;;;;;;;;;;30.60;96.70;;;;;;5017173;28;19917;-62
2022/06/24 12:19:17;;;;;;;;;;;31.70;95.40;;;;;;5015633;28;19918;-62
2022/06/24 12:21:43;;;;;;;;;;;33.30;90.90;;;;;;5030537;28;19936;-62
2022/06/24 12:24:21;;;;;;;;;;;33.10;89.00;;;;;;5018489;28;19940;-62
2022/06/24 12:26:47;;;;;;;;;;;30.70;92.30;;;;;;5024389;28;19943;-62
2022/06/24 12:29:12;;;;;;;;;;;31.30;91.40;;;;;;5026601;28;20008;-62
2022/06/24 12:31:38;;;;;;;;;;;30.40;92.20;;;;;;5025124;28;19932;-62
2022/06/24 12:34:04;;;;;;;;;;;29.50;94.40;;;;;;5017498;28;19921;-62
2022/06/24 12:36:36;;;;;;;;;;;28.70;98.10;;;;;;5015424;28;19917;-62
2022/06/24 12:39:06;;;;;;;;;;;29.40;96.90;;;;;;5008848;28;19956;-62
2022/06/24 12:41:41;;;;;;;;;;;29.00;96.70;;;;;;5010292;28;20368;-62
2022/06/24 12:44:06;;;;;;;;;;;29.60;97.00;;;;;;5016701;28;20015;-62
2022/06/24 12:46:32;;;;;;;;;;;31.20;93.30;;;;;;5004521;28;20003;-62
2022/06/24 12:51:42;;;;;;;;;;;31.80;90.00;;;;;;5034298;28;19916;-62
2022/06/24 12:54:08;;;;;;;;;;;31.90;88.30;;;;;;5030566;28;19928;-62
2022/06/24 12:56:34;;;;;;;;;;;32.80;85.60;;;;;;5020807;28;19917;-62
2022/06/24 12:59:00;;;;;;;;;;;32.00;82.80;;;;;;5021961;28;20377;-62
2022/06/24 13:01:28;;;;;;;;;;;33.00;87.40;;;;;;5019051;28;20427;-62
2022/06/24 13:03:53;;;;;;;;;;;34.70;79.20;;;;;;5024474;28;19975;-62
2022/06/24 13:06:19;;;;;;;;;;;33.80;77.60;;;;;;5030953;28;19962;-62
2022/06/24 13:08:45;;;;;;;;;;;32.40;81.70;;;;;;5018850;28;20321;-62
2022/06/24 13:11:12;;;;;;;;;;;32.60;81.80;;;;;;5027613;28;19912;-62
2022/06/24 13:13:37;;;;;;;;;;;31.90;82.70;;;;;;5006037;28;19960;-62
2022/06/24 13:16:03;;;;;;;;;;;30.80;84.00;;;;;;5013410;28;19971;-62
2022/06/24 13:18:28;;;;;;;;;;;30.70;84.60;;;;;;5016280;28;20305;-62
2022/06/24 13:20:54;;;;;;;;;;;29.50;89.80;;;;;;5018012;28;20012;-62
2022/06/24 13:23:20;;;;;;;;;;;28.90;91.60;;;;;;5005806;28;19989;-62
2022/06/24 13:25:45;;;;;;;;;;;28.90;91.60;;;;;;4998358;28;19917;-62
2022/06/24 13:28:11;;;;;;;;;;;29.00;92.00;;;;;;5011061;28;19917;-62
2022/06/24 13:30:37;;;;;;;;;;;29.00;92.60;;;;;;5012114;28;20277;-62
2022/06/24 13:33:02;;;;;;;;;;;30.70;90.00;;;;;;5011916;28;19939;-62
2022/06/24 13:35:28;;;;;;;;;;;33.40;81.50;;;;;;5007637;28;19920;-63
2022/06/24 13:37:53;;;;;;;;;;;34.40;78.10;;;;;;5006891;28;19925;-62
2022/06/24 13:40:19;;;;;;;;;;;32.80;77.80;;;;;;5011114;28;19971;-62
2022/06/24 13:42:45;;;;;;;;;;;31.20;80.10;;;;;;5019385;28;20211;-62
2022/06/24 13:45:11;;;;;;;;;;;31.70;83.80;;;;;;5023884;28;20363;-62
2022/06/24 13:47:36;;;;;;;;;;;32.70;81.50;;;;;;5024456;28;19917;-62
2022/06/24 13:50:02;;;;;;;;;;;32.00;80.10;;;;;;5028924;28;19922;-62
2022/06/24 13:52:28;;;;;;;;;;;33.20;79.80;;;;;;5013128;28;20027;-62
2022/06/24 13:54:57;;;;;;;;;;;35.50;76.80;;;;;;5019868;28;19917;-62
2022/06/24 13:57:23;;;;;;;;;;;36.00;74.10;;;;;;5021428;28;20011;-63
2022/06/24 13:59:49;;;;;;;;;;;34.00;73.80;;;;;;4994102;28;19988;-62
2022/06/24 14:02:15;;;;;;;;;;;35.20;74.80;;;;;;5011457;28;19971;-62
2022/06/24 14:04:41;;;;;;;;;;;36.20;73.00;;;;;;5006267;28;19909;-62
2022/06/24 14:07:06;;;;;;;;;;;35.90;72.10;;;;;;5019852;28;19979;-62
2022/06/24 14:09:32;;;;;;;;;;;34.40;74.10;;;;;;5010332;28;20000;-62
2022/06/24 14:11:58;;;;;;;;;;;33.30;76.20;;;;;;5022651;28;20337;-62
2022/06/24 14:14:23;;;;;;;;;;;32.40;75.80;;;;;;5025533;28;20339;-62
2022/06/24 14:16:49;;;;;;;;;;;31.30;77.90;;;;;;5024586;28;19916;-62
2022/06/24 14:19:14;;;;;;;;;;;30.70;78.60;;;;;;5021490;28;19917;-62
2022/06/24 14:21:40;;;;;;;;;;;32.40;78.60;;;;;;5023765;28;20300;-62
2022/06/24 14:26:49;;;;;;;;;;;34.70;73.20;;;;;;5028912;28;20400;-62
2022/06/24 14:29:15;;;;;;;;;;;34.80;72.20;;;;;;5029256;28;20625;-62
2022/06/24 14:31:40;;;;;;;;;;;33.80;71.40;;;;;;5010074;28;19932;-62